Time;durP1;ratioP1;P1;durP2;ratioP2;P2;SDS_P1;SDS_P2;PMS_P1;PMS_P2;Temp;Humidity;BMP_temperature;BMP_pressure;BME280_temperature;BME280_humidity;BME280_pressure;Samples;Min_cycle;Max_cycle;Signal;HPM_P1;HPM_P2
2021/03/09 00:00:16;;;;;;;27.13;14.47;;;;;;;0.47;57.36;97235.81;1763953;81;21131;-77
2021/03/09 00:02:45;;;;;;;27.27;16.52;;;;;;;0.45;57.02;97235.88;1772705;81;21172;-77
2021/03/09 00:05:14;;;;;;;29.18;16.95;;;;;;;0.46;56.82;97232.81;1772809;81;21143;-78
2021/03/09 00:07:42;;;;;;;16.60;9.50;;;;;;;0.46;57.24;97235.41;1765360;81;21153;-78
2021/03/09 00:10:11;;;;;;;21.83;11.27;;;;;;;0.48;56.49;97233.61;1760468;82;21295;-79
2021/03/09 00:12:40;;;;;;;31.52;16.02;;;;;;;0.46;56.17;97228.46;1762725;81;21289;-78
2021/03/09 00:15:12;;;;;;;24.30;12.35;;;;;;;0.47;56.37;97225.44;1743419;81;21190;-77
2021/03/09 00:17:40;;;;;;;25.50;13.32;;;;;;;0.44;56.94;97225.10;1772160;81;21147;-78
2021/03/09 00:20:09;;;;;;;23.87;13.37;;;;;;;0.45;56.50;97218.16;1771924;81;21167;-78
2021/03/09 00:22:36;;;;;;;25.27;13.83;;;;;;;0.49;56.80;97221.47;1772673;81;21286;-78
2021/03/09 00:25:05;;;;;;;27.70;13.97;;;;;;;0.50;56.79;97221.44;1772867;81;21155;-78
2021/03/09 00:27:32;;;;;;;23.47;14.40;;;;;;;0.51;57.30;97216.61;1772597;81;21155;-78
2021/03/09 00:30:00;;;;;;;22.73;13.83;;;;;;;0.56;56.88;97219.03;1771791;81;21119;-78
2021/03/09 00:32:27;;;;;;;21.90;13.03;;;;;;;0.58;57.82;97223.28;1771575;81;21159;-77
2021/03/09 00:34:55;;;;;;;21.12;12.73;;;;;;;0.60;57.36;97218.03;1772146;81;21541;-79
2021/03/09 00:37:22;;;;;;;22.65;13.45;;;;;;;0.62;57.24;97223.55;1771693;81;21155;-78
2021/03/09 00:39:50;;;;;;;23.75;12.35;;;;;;;0.62;56.98;97215.77;1772588;81;21132;-77
2021/03/09 00:42:18;;;;;;;21.65;13.58;;;;;;;0.65;56.75;97213.49;1770623;81;21143;-78
2021/03/09 00:44:45;;;;;;;25.52;15.13;;;;;;;0.68;56.71;97218.58;1760604;82;21286;-76
2021/03/09 00:47:12;;;;;;;23.20;13.25;;;;;;;0.72;57.30;97216.27;1760566;82;21279;-78
2021/03/09 00:49:40;;;;;;;26.53;14.67;;;;;;;0.73;57.75;97208.88;1760676;82;21148;-77
2021/03/09 00:52:08;;;;;;;25.40;15.25;;;;;;;0.75;57.08;97209.64;1763784;81;21485;-77
2021/03/09 00:54:37;;;;;;;22.20;12.03;;;;;;;0.77;56.75;97214.80;1772364;81;21238;-77
2021/03/09 00:57:07;;;;;;;19.42;10.00;;;;;;;0.77;57.20;97211.73;1772208;81;21188;-77
2021/03/09 00:59:35;;;;;;;27.15;15.70;;;;;;;0.77;56.66;97207.84;1772414;81;21088;-77
2021/03/09 01:02:04;;;;;;;27.27;15.48;;;;;;;0.75;56.67;97211.41;1776129;81;21301;-78
2021/03/09 01:04:34;;;;;;;25.72;14.15;;;;;;;0.75;56.66;97203.63;1776917;81;21179;-78
2021/03/09 01:07:01;;;;;;;27.27;15.83;;;;;;;0.80;56.73;97201.67;1777320;81;21301;-77
2021/03/09 01:09:31;;;;;;;25.92;16.10;;;;;;;0.84;56.68;97208.45;1750795;81;21277;-77
2021/03/09 01:11:59;;;;;;;24.07;14.83;;;;;;;0.86;56.94;97207.95;1775912;81;21140;-78
2021/03/09 01:14:28;;;;;;;24.17;12.57;;;;;;;0.85;57.09;97206.25;1776062;81;21167;-79
2021/03/09 01:16:58;;;;;;;22.42;13.30;;;;;;;0.86;56.52;97204.05;1776608;81;21301;-78
2021/03/09 01:19:25;;;;;;;25.05;14.65;;;;;;;0.84;56.57;97207.16;1777053;81;21151;-79
2021/03/09 01:21:53;;;;;;;27.62;14.58;;;;;;;0.78;57.31;97207.41;1777151;81;21283;-77
2021/03/09 01:24:24;;;;;;;24.85;16.42;;;;;;;0.80;56.85;97206.03;1776804;81;21171;-76
2021/03/09 01:26:51;;;;;;;26.20;16.45;;;;;;;0.81;56.92;97203.37;1776635;81;21270;-79
2021/03/09 01:29:18;;;;;;;24.47;14.93;;;;;;;0.81;57.18;97202.07;1776475;81;21241;-77
2021/03/09 01:31:46;;;;;;;25.80;15.78;;;;;;;0.81;57.55;97204.67;1776270;81;21136;-79
2021/03/09 01:34:13;;;;;;;26.73;16.60;;;;;;;0.81;57.66;97197.34;1776207;81;21155;-78
2021/03/09 01:36:41;;;;;;;24.85;14.68;;;;;;;0.80;57.47;97200.38;1776578;81;21147;-78
2021/03/09 01:39:12;;;;;;;27.22;14.87;;;;;;;0.77;57.56;97201.81;1776265;81;21278;-78
2021/03/09 01:41:40;;;;;;;18.48;10.75;;;;;;;0.74;57.99;97199.33;1776963;81;21277;-78
2021/03/09 01:44:07;;;;;;;25.95;13.83;;;;;;;0.74;57.55;97198.86;1776417;81;21143;-78
2021/03/09 01:46:36;;;;;;;24.72;14.10;;;;;;;0.69;57.46;97199.98;1776355;81;21131;-78
2021/03/09 01:49:04;;;;;;;29.30;16.07;;;;;;;0.64;57.50;97197.56;1775563;81;21107;-77
2021/03/09 01:51:34;;;;;;;24.55;14.43;;;;;;;0.65;57.68;97200.52;1776231;81;21174;-77
2021/03/09 01:54:02;;;;;;;26.17;13.70;;;;;;;0.67;57.77;97195.30;1775571;81;21191;-77
2021/03/09 01:56:29;;;;;;;25.50;15.23;;;;;;;0.66;57.71;97198.32;1775191;81;21158;-78
2021/03/09 01:59:00;;;;;;;27.30;13.78;;;;;;;0.66;57.38;97198.79;1749112;81;21147;-76
2021/03/09 02:01:27;;;;;;;24.45;13.78;;;;;;;0.66;58.16;97197.49;1772582;80;21166;-78
2021/03/09 02:03:57;;;;;;;25.27;15.40;;;;;;;0.66;57.49;97200.09;1767679;81;21139;-77
2021/03/09 02:06:24;;;;;;;25.40;14.13;;;;;;;0.65;57.70;97194.50;1741942;81;21155;-76
2021/03/09 02:08:53;;;;;;;25.90;14.33;;;;;;;0.65;57.79;97194.50;1767250;81;21144;-78
2021/03/09 02:11:32;;;;;;;26.70;14.53;;;;;;;0.67;57.79;97190.11;1767376;81;21572;-77
2021/03/09 02:14:10;;;;;;;24.65;13.95;;;;;;;0.67;57.69;97188.80;1767024;81;21155;-77
2021/03/09 02:16:46;;;;;;;24.53;12.13;;;;;;;0.68;57.71;97195.69;1767530;81;21135;-77
2021/03/09 02:19:53;;;;;;;26.05;15.18;;;;;;;0.67;57.80;97193.53;1763245;81;21159;-78
2021/03/09 02:22:31;;;;;;;;;;;;;;;0.67;57.85;97196.13;1778350;81;21142;-77
2021/03/09 02:28:14;;;;;;;21.40;13.10;;;;;;;0.62;57.66;97195.47;1679075;85;21178;-78
2021/03/09 02:30:52;;;;;;;22.80;12.63;;;;;;;0.64;57.70;97191.08;1708161;84;21278;-77
2021/03/09 02:33:22;;;;;;;20.02;11.40;;;;;;;0.60;57.61;97189.02;1708537;84;21129;-78
2021/03/09 02:35:54;;;;;;;22.75;12.78;;;;;;;0.58;57.71;97190.86;1708032;84;21281;-77
2021/03/09 02:38:24;;;;;;;22.90;11.38;;;;;;;0.55;57.60;97190.97;1675948;86;21608;-78
2021/03/09 02:40:55;;;;;;;21.97;11.67;;;;;;;0.53;57.48;97195.83;1674012;86;21172;-78
2021/03/09 02:43:24;;;;;;;21.00;11.73;;;;;;;0.51;57.49;97195.03;1674044;86;21195;-78
2021/03/09 02:45:53;;;;;;;22.32;11.40;;;;;;;0.48;57.35;97195.14;1705523;84;21122;-78
2021/03/09 02:48:24;;;;;;;22.95;11.88;;;;;;;0.43;57.34;97198.77;1677555;86;21139;-79
2021/03/09 02:50:55;;;;;;;21.35;13.18;;;;;;;0.41;57.57;97191.95;1705575;84;21310;-78
2021/03/09 02:53:27;;;;;;;21.27;12.25;;;;;;;0.40;57.78;97195.45;1677914;84;21146;-77
2021/03/09 02:55:58;;;;;;;20.60;10.72;;;;;;;0.36;58.14;97206.83;1650601;86;21148;-77
2021/03/09 02:58:27;;;;;;;22.27;12.47;;;;;;;0.32;57.94;97205.27;1670474;85;21167;-77
2021/03/09 03:00:56;;;;;;;19.02;11.00;;;;;;;0.27;57.98;97208.86;1677524;86;21121;-78
2021/03/09 03:03:26;;;;;;;22.00;12.07;;;;;;;0.23;58.09;97207.27;1697747;84;21187;-78
2021/03/09 03:05:57;;;;;;;25.88;13.58;;;;;;;0.20;58.28;97211.73;1677362;86;21109;-78
2021/03/09 03:08:26;;;;;;;18.67;11.17;;;;;;;0.14;58.08;97214.09;1677354;86;21176;-77
2021/03/09 03:10:55;;;;;;;20.65;11.40;;;;;;;0.10;58.17;97212.06;1705731;84;21340;-77
2021/03/09 03:13:25;;;;;;;23.20;12.10;;;;;;;0.02;58.53;97211.50;1677157;86;21141;-78
2021/03/09 03:15:53;;;;;;;20.90;13.03;;;;;;;-0.02;58.13;97214.66;1696374;84;21274;-77
2021/03/09 03:18:23;;;;;;;18.07;10.83;;;;;;;-0.04;58.30;97222.93;1677482;86;21167;-77
2021/03/09 03:20:53;;;;;;;19.77;11.00;;;;;;;-0.10;58.31;97224.92;1670847;84;21128;-78
2021/03/09 03:23:23;;;;;;;22.50;12.47;;;;;;;-0.13;58.51;97230.20;1678361;85;21192;-78
2021/03/09 03:25:54;;;;;;;18.30;9.87;;;;;;;-0.22;58.86;97232.22;1708914;84;21281;-78
2021/03/09 03:28:22;;;;;;;15.43;9.55;;;;;;;-0.30;58.45;97225.16;1708593;83;21152;-78
2021/03/09 03:30:51;;;;;;;26.33;10.40;;;;;;;-0.40;58.70;97227.67;1715677;83;21272;-77
2021/03/09 03:33:21;;;;;;;21.07;12.13;;;;;;;-0.51;59.15;97231.47;1724737;83;21166;-76
2021/03/09 03:35:49;;;;;;;22.60;12.93;;;;;;;-0.54;59.04;97235.44;1732226;83;21158;-78
2021/03/09 03:38:16;;;;;;;22.37;11.70;;;;;;;-0.50;59.31;97239.63;1725524;83;21196;-78
2021/03/09 03:40:44;;;;;;;33.07;11.77;;;;;;;-0.50;59.76;97240.06;1728658;81;21178;-78
2021/03/09 03:43:13;;;;;;;20.87;12.47;;;;;;;-0.50;59.97;97241.36;1704870;84;21175;-78
2021/03/09 03:45:41;;;;;;;24.10;13.10;;;;;;;-0.53;59.67;97241.48;1704872;84;21310;-77
2021/03/09 03:48:11;;;;;;;21.60;11.70;;;;;;;-0.52;59.51;97238.83;1703934;84;21290;-78
2021/03/09 03:50:39;;;;;;;25.37;13.53;;;;;;;-0.48;59.57;97250.80;1703437;84;21156;-77
2021/03/09 03:53:42;;;;;;;19.67;9.80;;;;;;;-0.45;59.55;97249.84;1680507;84;21156;-78
2021/03/09 03:56:44;;;;;;;15.53;8.87;;;;;;;-0.48;59.20;97246.91;1708330;84;21174;-78
2021/03/09 03:59:31;;;;;;;18.50;7.97;;;;;;;-0.63;59.58;97244.81;1683959;84;21313;-78
2021/03/09 04:02:06;;;;;;;17.57;9.63;;;;;;;-0.66;59.15;97249.65;1722980;83;21147;-77
2021/03/09 04:04:41;;;;;;;15.73;8.33;;;;;;;-0.73;59.10;97246.00;1710021;83;21211;-78
2021/03/09 04:07:08;;;;;;;24.00;12.73;;;;;;;-0.79;59.21;97244.03;1725901;82;21165;-77
2021/03/09 04:09:39;;;;;;;21.97;9.40;;;;;;;-0.79;59.43;97254.84;1735991;82;21167;-77
2021/03/09 04:12:10;;;;;;;20.87;9.87;;;;;;;-0.73;59.11;97250.75;1730851;83;21164;-77
2021/03/09 04:14:38;;;;;;;17.47;9.73;;;;;;;-0.69;59.67;97248.44;1696334;83;21192;-76
2021/03/09 04:17:06;;;;;;;16.40;8.27;;;;;;;-0.68;59.09;97254.02;1695942;84;21645;-77
2021/03/09 04:19:36;;;;;;;17.27;9.13;;;;;;;-0.67;59.03;97252.30;1673491;86;21329;-78
2021/03/09 04:22:05;;;;;;;20.27;10.90;;;;;;;-0.64;59.18;97247.86;1728117;83;21569;-77
2021/03/09 04:24:33;;;;;;;16.77;8.37;;;;;;;-0.56;59.33;97250.64;1713128;83;21211;-77
2021/03/09 04:27:00;;;;;;;19.80;8.20;;;;;;;-0.53;59.31;97251.84;1727970;82;21167;-76
2021/03/09 04:29:28;;;;;;;18.07;10.67;;;;;;;-0.53;58.77;97252.67;1739862;82;21163;-77
2021/03/09 04:31:59;;;;;;;20.93;11.50;;;;;;;-0.55;59.01;97258.81;1736922;82;21313;-76
2021/03/09 04:34:27;;;;;;;19.43;10.90;;;;;;;-0.52;59.88;97265.20;1712510;82;21302;-77
2021/03/09 04:36:56;;;;;;;19.17;10.43;;;;;;;-0.45;59.73;97265.37;1726034;82;21133;-78
2021/03/09 04:39:25;;;;;;;17.13;10.03;;;;;;;-0.36;59.63;97262.91;1714226;82;21601;-78
2021/03/09 04:41:54;;;;;;;20.90;9.83;;;;;;;-0.29;59.45;97263.56;1715561;83;21297;-76
2021/03/09 04:44:23;;;;;;;19.00;10.07;;;;;;;-0.26;59.03;97258.28;1735958;83;21593;-77
2021/03/09 04:46:50;;;;;;;22.97;11.77;;;;;;;-0.24;59.19;97261.67;1738746;82;21138;-79
2021/03/09 04:49:19;;;;;;;24.65;12.30;;;;;;;-0.19;59.22;97269.69;1728917;82;21160;-78
2021/03/09 04:51:48;;;;;;;18.00;9.83;;;;;;;-0.17;58.98;97268.33;1709760;82;21154;-78
2021/03/09 04:54:15;;;;;;;23.47;11.08;;;;;;;-0.13;58.97;97278.97;1738163;82;21559;-77
2021/03/09 04:56:43;;;;;;;20.63;10.97;;;;;;;-0.08;58.82;97280.11;1738807;82;21103;-77
2021/03/09 04:59:10;;;;;;;20.00;10.03;;;;;;;-0.03;58.72;97273.03;1737796;82;21132;-77
2021/03/09 05:01:38;;;;;;;17.07;8.90;;;;;;;-0.03;58.39;97270.45;1732628;82;21187;-78
2021/03/09 05:04:07;;;;;;;17.98;10.35;;;;;;;-0.04;58.34;97274.77;1738372;82;21147;-77
2021/03/09 05:06:34;;;;;;;17.33;9.77;;;;;;;-0.03;58.33;97279.05;1733711;83;21270;-77
2021/03/09 05:09:03;;;;;;;19.00;8.87;;;;;;;0.03;58.22;97281.05;1719740;83;21163;-79
2021/03/09 05:11:31;;;;;;;19.57;10.13;;;;;;;0.06;58.00;97280.92;1715103;82;21701;-77
2021/03/09 05:13:59;;;;;;;18.50;10.63;;;;;;;0.10;57.95;97285.95;1721954;82;21244;-76
2021/03/09 05:16:28;;;;;;;17.00;9.17;;;;;;;0.15;57.93;97285.35;1726630;82;21258;-80
2021/03/09 05:19:00;;;;;;;18.07;9.50;;;;;;;0.17;57.85;97290.94;1741816;82;21133;-77
2021/03/09 05:21:28;;;;;;;16.75;9.48;;;;;;;0.21;57.69;97284.30;1730652;82;21156;-78
2021/03/09 05:23:55;;;;;;;21.12;10.55;;;;;;;0.25;57.44;97289.75;1712088;84;21721;-78
2021/03/09 05:26:26;;;;;;;18.87;9.13;;;;;;;0.24;57.36;97288.52;1711388;84;21161;-78
2021/03/09 05:28:53;;;;;;;18.33;10.97;;;;;;;0.28;57.28;97286.19;1711870;83;21174;-78
2021/03/09 05:31:20;;;;;;;19.90;10.63;;;;;;;0.35;57.23;97299.79;1732915;83;21178;-78
2021/03/09 05:33:49;;;;;;;19.75;9.78;;;;;;;0.39;57.16;97295.73;1732964;83;21143;-77
2021/03/09 05:36:16;;;;;;;18.45;9.45;;;;;;;0.45;56.94;97298.56;1764439;81;21124;-77
2021/03/09 05:38:44;;;;;;;19.87;10.25;;;;;;;0.51;57.02;97302.22;1699089;83;21262;-78
2021/03/09 05:41:13;;;;;;;18.17;9.50;;;;;;;0.60;56.79;97305.77;1729619;83;21527;-76
2021/03/09 05:43:41;;;;;;;16.55;8.18;;;;;;;0.61;56.29;97304.04;1699152;84;21239;-76
2021/03/09 05:46:11;;;;;;;17.35;9.33;;;;;;;0.64;56.10;97309.56;1730297;83;21156;-78
2021/03/09 05:48:42;;;;;;;20.57;10.18;;;;;;;0.73;56.13;97312.67;1701630;84;21173;-77
2021/03/09 05:51:11;;;;;;;17.70;10.93;;;;;;;0.82;56.06;97314.06;1730874;83;21133;-76
2021/03/09 05:53:41;;;;;;;19.05;9.50;;;;;;;0.86;55.92;97315.66;1731124;80;21137;-78
2021/03/09 05:56:10;;;;;;;23.60;9.43;;;;;;;0.92;55.92;97318.47;1694190;84;21326;-78
2021/03/09 05:58:38;;;;;;;17.27;9.23;;;;;;;0.95;55.63;97316.20;1704646;84;21282;-78
2021/03/09 06:01:05;;;;;;;20.05;9.08;;;;;;;0.98;55.42;97328.61;1704838;84;21164;-76
2021/03/09 06:03:35;;;;;;;14.05;8.10;;;;;;;1.02;55.20;97317.66;1705027;84;21310;-78
2021/03/09 06:06:04;;;;;;;20.17;10.00;;;;;;;1.11;54.98;97328.98;1704955;84;21720;-77
2021/03/09 06:08:34;;;;;;;20.20;11.25;;;;;;;1.22;54.94;97332.02;1704487;83;21137;-77
2021/03/09 06:11:16;;;;;;;21.23;10.50;;;;;;;1.32;54.83;97328.59;1715715;83;21249;-79
2021/03/09 06:13:45;;;;;;;19.37;9.00;;;;;;;1.43;54.73;97333.39;1734438;83;21160;-77
2021/03/09 06:16:13;;;;;;;18.05;8.80;;;;;;;1.48;54.70;97335.34;1734641;83;21207;-81
2021/03/09 06:18:57;;;;;;;18.75;8.85;;;;;;;1.57;54.28;97338.04;1692471;84;21163;-78
2021/03/09 06:21:26;;;;;;;16.42;8.18;;;;;;;1.64;53.84;97342.51;1704776;84;21156;-76
2021/03/09 06:23:53;;;;;;;15.48;7.17;;;;;;;1.71;53.57;97340.08;1704053;84;21151;-77
2021/03/09 06:26:40;;;;;;;18.87;8.33;;;;;;;1.80;53.79;97347.50;1716221;83;21271;-77
2021/03/09 06:29:17;;;;;;;14.55;7.65;;;;;;;1.91;53.39;97342.28;1730605;83;21283;-79
2021/03/09 06:31:59;;;;;;;15.05;7.72;;;;;;;1.98;52.82;97347.17;1730057;83;21286;-78
2021/03/09 06:34:34;;;;;;;16.27;8.70;;;;;;;1.99;52.54;97353.24;1717653;83;21121;-78
2021/03/09 06:37:23;;;;;;;24.25;9.15;;;;;;;2.06;52.60;97361.17;1730964;83;21282;-78
2021/03/09 06:40:06;;;;;;;16.23;8.73;;;;;;;2.09;52.52;97359.72;1717179;83;21287;-79
2021/03/09 06:42:39;;;;;;;19.85;8.33;;;;;;;2.03;52.42;97362.16;1687760;84;21153;-80
2021/03/09 06:45:14;;;;;;;16.70;7.53;;;;;;;2.13;51.73;97361.77;1716788;83;21149;-79
2021/03/09 06:47:44;;;;;;;9.95;6.33;;;;;;;2.26;51.57;97363.39;1716899;83;21327;-79
2021/03/09 06:50:16;;;;;;;12.05;7.10;;;;;;;2.37;51.83;97366.35;1722791;83;21254;-78
2021/03/09 06:53:00;;;;;;;11.80;5.95;;;;;;;2.47;50.92;97369.42;1730446;83;21681;-79
2021/03/09 06:55:47;;;;;;;11.63;6.15;;;;;;;2.72;49.37;97367.90;1791386;80;27785;-78
2021/03/09 06:58:15;;;;;;;16.82;6.60;;;;;;;2.86;49.70;97369.89;1765352;81;21278;-79
2021/03/09 07:00:43;;;;;;;11.20;6.05;;;;;;;3.08;49.19;97372.36;1765482;81;21294;-79
2021/03/09 07:03:36;;;;;;;9.88;6.55;;;;;;;3.33;49.01;97369.09;1765799;81;21262;-78
2021/03/09 07:06:07;;;;;;;9.90;5.55;;;;;;;3.59;48.88;97362.63;1760177;81;21257;-81
2021/03/09 07:08:36;;;;;;;10.58;6.00;;;;;;;3.87;47.02;97369.97;1765388;81;21160;-79
2021/03/09 07:11:03;;;;;;;10.80;5.30;;;;;;;4.12;47.23;97370.53;1765812;81;21120;-78
2021/03/09 07:13:33;;;;;;;12.00;6.42;;;;;;;4.44;47.72;97365.44;1765797;81;21147;-81
2021/03/09 07:16:02;;;;;;;12.70;9.45;;;;;;;4.65;46.53;97367.39;1736449;81;21131;-79
2021/03/09 07:18:32;;;;;;;18.07;6.83;;;;;;;4.98;45.78;97365.25;1765274;81;21123;-79
2021/03/09 07:21:02;;;;;;;12.47;5.40;;;;;;;5.43;43.71;97357.59;1765662;81;21314;-77
2021/03/09 07:23:31;;;;;;;9.75;4.15;;;;;;;5.74;45.21;97362.42;1765198;81;21172;-80
2021/03/09 07:26:03;;;;;;;9.63;5.05;;;;;;;5.48;42.39;97329.44;1765810;81;21179;-78
2021/03/09 07:28:41;;;;;;;9.48;6.15;;;;;;;5.55;41.31;97364.77;1765267;81;21231;-79
2021/03/09 07:31:10;;;;;;;6.65;5.25;;;;;;;5.87;43.17;97367.36;1765585;81;21152;-78
2021/03/09 07:33:41;;;;;;;9.55;5.53;;;;;;;6.12;42.26;97364.66;1765800;81;21168;-78
2021/03/09 07:36:09;;;;;;;8.30;4.50;;;;;;;6.27;42.77;97359.45;1766031;81;21322;-79
2021/03/09 07:38:39;;;;;;;10.75;6.20;;;;;;;6.21;41.64;97360.20;1765892;81;21155;-79
2021/03/09 07:41:09;;;;;;;11.12;5.45;;;;;;;6.11;42.12;97357.73;1765588;81;21171;-78
2021/03/09 07:43:38;;;;;;;8.58;4.95;;;;;;;6.32;41.83;97357.42;1765791;81;21144;-81
2021/03/09 07:46:11;;;;;;;8.50;5.35;;;;;;;6.49;42.03;97360.36;1765943;81;21258;-78
2021/03/09 07:48:59;;;;;;;11.60;6.08;;;;;;;6.15;38.47;97355.33;1765946;81;21541;-79
2021/03/09 07:51:26;;;;;;;9.33;5.40;;;;;;;6.16;37.08;97362.70;1763918;80;21281;-78
2021/03/09 07:54:14;;;;;;;5.05;3.42;;;;;;;6.30;39.75;97357.97;1758706;82;21140;-82
2021/03/09 07:57:20;;;;;;;9.70;4.25;;;;;;;5.99;33.87;97351.86;1724664;82;21512;-79
2021/03/09 08:00:03;;;;;;;8.20;4.37;;;;;;;5.48;36.96;97351.66;1722990;83;21190;-76
2021/03/09 08:02:56;;;;;;;11.30;6.03;;;;;;;4.94;35.55;97349.34;1676115;83;21295;-81
2021/03/09 08:05:29;;;;;;;10.75;5.80;;;;;;;4.41;37.50;97341.64;1694648;85;21264;-78
2021/03/09 08:08:04;;;;;;;8.20;5.17;;;;;;;4.32;38.46;97340.81;1691886;85;21296;-76
2021/03/09 08:10:43;;;;;;;10.35;5.55;;;;;;;4.45;39.10;97346.24;1694170;85;21156;-77
2021/03/09 08:13:16;;;;;;;7.53;4.62;;;;;;;4.73;38.90;97339.58;1694130;85;21125;-79
2021/03/09 08:15:43;;;;;;;7.33;4.47;;;;;;;4.90;36.04;97348.67;1693529;84;21127;-80
2021/03/09 08:18:23;;;;;;;12.15;3.87;;;;;;;5.07;38.08;97346.47;1688654;84;21181;-79
2021/03/09 08:20:55;;;;;;;8.03;4.35;;;;;;;5.10;38.09;97342.84;1680638;85;21282;-79
2021/03/09 08:23:37;;;;;;;8.05;3.42;;;;;;;4.85;35.50;97340.25;1694186;85;21134;-79
2021/03/09 08:26:10;;;;;;;5.97;3.62;;;;;;;4.64;36.39;97342.23;1683439;85;21169;-78
2021/03/09 08:29:01;;;;;;;8.50;3.37;;;;;;;4.60;36.73;97338.91;1827895;77;25059;-77
2021/03/09 08:31:28;;;;;;;4.97;2.90;;;;;;;4.53;36.28;97329.27;1832065;78;21101;-79
2021/03/09 08:34:15;;;;;;;7.37;3.85;;;;;;;4.54;35.81;97332.72;1830938;78;21182;-78
2021/03/09 08:36:43;;;;;;;7.95;4.30;;;;;;;4.42;35.80;97326.81;1824251;78;21120;-80
2021/03/09 08:39:13;;;;;;;7.03;4.47;;;;;;;4.19;36.34;97317.11;1795519;80;21128;-80
2021/03/09 08:41:46;;;;;;;10.75;5.35;;;;;;;4.25;37.17;97327.23;1767565;81;21120;-81
2021/03/09 08:44:22;;;;;;;9.83;5.30;;;;;;;4.60;37.35;97322.41;1743227;82;21282;-79
2021/03/09 08:47:11;;;;;;;12.60;5.28;;;;;;;4.91;37.51;97329.46;1743124;82;21289;-79
2021/03/09 08:49:46;;;;;;;9.37;4.60;;;;;;;5.01;36.83;97331.14;1750717;81;21147;-80
2021/03/09 08:52:22;;;;;;;9.65;6.17;;;;;;;4.93;35.64;97323.70;1773516;81;21213;-79
2021/03/09 08:54:53;;;;;;;5.85;3.40;;;;;;;4.91;37.36;97319.49;1773771;81;21270;-77
2021/03/09 08:57:26;;;;;;;8.58;5.05;;;;;;;5.11;37.59;97317.09;1753039;81;21140;-78
2021/03/09 09:00:05;;;;;;;7.22;4.58;;;;;;;4.91;36.29;97313.79;1774270;81;21127;-79
2021/03/09 09:02:33;;;;;;;7.28;4.17;;;;;;;4.67;35.62;97310.72;1773804;81;21151;-78
2021/03/09 09:05:06;;;;;;;6.40;3.22;;;;;;;4.28;34.88;97312.73;1774155;81;21120;-79
2021/03/09 09:07:39;;;;;;;11.08;5.12;;;;;;;4.20;35.74;97312.28;1772567;81;21569;-77
2021/03/09 09:10:22;;;;;;;7.97;5.37;;;;;;;4.04;35.91;97310.43;1756355;82;21149;-79
2021/03/09 09:12:56;;;;;;;11.55;5.45;;;;;;;4.15;35.59;97309.91;1743033;82;21163;-79
2021/03/09 09:15:30;;;;;;;8.15;4.20;;;;;;;4.28;34.90;97304.04;1761156;81;21605;-77
2021/03/09 09:18:01;;;;;;;13.35;4.85;;;;;;;4.37;36.50;97307.03;1773627;81;21262;-78
2021/03/09 09:20:40;;;;;;;6.00;3.10;;;;;;;4.30;34.52;97308.28;1765812;81;21229;-77
2021/03/09 09:23:16;;;;;;;7.58;2.75;;;;;;;4.40;35.75;97309.94;1757128;81;21152;-77
2021/03/09 09:25:52;;;;;;;5.70;3.60;;;;;;;4.30;34.42;97306.11;1771327;81;21277;-78
2021/03/09 09:28:38;;;;;;;8.83;4.47;;;;;;;4.06;34.99;97305.16;1733731;82;21286;-77
2021/03/09 09:31:17;;;;;;;4.85;2.72;;;;;;;3.94;34.18;97299.24;1725745;83;21771;-78
2021/03/09 09:33:50;;;;;;;7.90;4.33;;;;;;;3.78;34.14;97300.45;1745716;81;21179;-75
2021/03/09 09:36:21;;;;;;;6.10;3.70;;;;;;;3.59;34.83;97292.24;1792981;80;21146;-76
2021/03/09 09:38:52;;;;;;;9.10;3.70;;;;;;;3.67;35.52;97295.31;1787910;80;21145;-78
2021/03/09 09:41:21;;;;;;;12.65;5.87;;;;;;;3.79;35.52;97296.49;1805242;79;21155;-76
2021/03/09 09:43:50;;;;;;;7.12;4.53;;;;;;;3.83;35.78;97291.97;1787202;80;21114;-77
2021/03/09 09:46:25;;;;;;;9.13;4.65;;;;;;;3.93;35.88;97285.38;1789403;80;21531;-77
2021/03/09 09:48:55;;;;;;;6.70;3.85;;;;;;;4.06;35.77;97291.64;1756128;80;21582;-78
2021/03/09 09:51:25;;;;;;;7.70;4.40;;;;;;;4.08;36.04;97281.14;1802558;79;21133;-77
2021/03/09 09:53:54;;;;;;;8.53;4.12;;;;;;;4.22;35.79;97283.88;1795578;78;21091;-77
2021/03/09 09:56:26;;;;;;;6.25;4.00;;;;;;;4.27;35.02;97278.89;1791108;79;21145;-76
2021/03/09 09:58:57;;;;;;;6.37;4.33;;;;;;;4.16;34.83;97282.90;1796835;79;21577;-77
2021/03/09 10:01:40;;;;;;;11.68;4.12;;;;;;;4.18;34.85;97278.89;1790412;79;21119;-77
2021/03/09 10:04:16;;;;;;;8.58;4.20;;;;;;;4.35;35.49;97279.33;1790118;80;21707;-78
2021/03/09 10:06:50;;;;;;;8.45;4.30;;;;;;;4.50;35.82;97276.38;1762769;80;21570;-79
2021/03/09 10:09:24;;;;;;;10.45;4.47;;;;;;;4.54;34.69;97270.05;1782517;80;21097;-79
2021/03/09 10:14:53;;;;;;;8.63;4.97;;;;;;;4.76;35.37;97256.69;1824758;77;25380;-79
2021/03/09 10:17:21;;;;;;;7.92;4.60;;;;;;;4.76;35.37;97256.69;1828210;78;21271;-78
2021/03/09 10:19:49;;;;;;;7.37;4.62;;;;;;;4.90;34.10;97264.25;1830911;78;21112;-78
2021/03/09 10:22:26;;;;;;;8.10;4.90;;;;;;;4.75;34.49;97263.31;1830758;78;21278;-78
2021/03/09 10:25:10;;;;;;;8.43;4.47;;;;;;;4.85;35.40;97255.36;1831045;78;21667;-77
2021/03/09 10:27:39;;;;;;;9.50;5.00;;;;;;;4.95;35.40;97251.32;1828072;78;21127;-78
2021/03/09 10:30:09;;;;;;;10.20;5.40;;;;;;;4.75;34.00;97231.50;1831297;78;21096;-79
2021/03/09 10:32:52;;;;;;;9.80;4.80;;;;;;;4.94;34.73;97256.16;1801396;78;21541;-78
2021/03/09 10:35:21;;;;;;;9.98;5.05;;;;;;;4.87;35.65;97250.91;1831080;78;21260;-78
2021/03/09 10:37:51;;;;;;;11.93;4.70;;;;;;;4.90;32.67;97246.80;1831348;78;21136;-77
2021/03/09 10:40:19;;;;;;;9.85;4.70;;;;;;;4.99;35.75;97248.90;1831732;78;21096;-78
2021/03/09 10:42:51;;;;;;;10.95;5.28;;;;;;;5.10;35.30;97247.47;1831714;78;21119;-77
2021/03/09 10:45:45;;;;;;;7.67;4.70;;;;;;;5.24;35.37;97248.00;1831269;78;21140;-77
2021/03/09 10:48:16;;;;;;;7.58;5.65;;;;;;;5.38;35.27;97247.22;1830936;78;21144;-76
2021/03/09 10:50:44;;;;;;;8.65;5.08;;;;;;;5.43;34.95;97246.48;1826966;78;21132;-78
2021/03/09 10:53:12;;;;;;;10.03;4.28;;;;;;;5.45;32.70;97243.31;1798093;80;21139;-77
2021/03/09 10:55:41;;;;;;;7.30;3.22;;;;;;;5.34;32.29;97239.16;1798779;80;21135;-77
2021/03/09 10:58:09;;;;;;;8.58;5.03;;;;;;;5.14;32.67;97243.77;1798946;80;21142;-76
2021/03/09 11:00:36;;;;;;;10.25;4.67;;;;;;;4.84;33.65;97241.44;1798533;80;21111;-77
2021/03/09 11:03:04;;;;;;;12.33;5.10;;;;;;;4.81;33.93;97242.94;1798374;80;21155;-78
2021/03/09 11:05:33;;;;;;;8.70;5.80;;;;;;;4.91;34.72;97241.95;1798446;80;21153;-77
2021/03/09 11:08:01;;;;;;;8.95;5.60;;;;;;;5.11;34.38;97230.86;1798604;80;21147;-79
2021/03/09 11:10:28;;;;;;;11.12;6.25;;;;;;;5.39;34.97;97222.77;1798370;80;21115;-78
2021/03/09 11:12:57;;;;;;;8.70;6.08;;;;;;;5.60;32.60;97229.38;1781985;80;21195;-76
2021/03/09 11:15:26;;;;;;;11.33;6.37;;;;;;;5.68;32.84;97227.61;1777399;80;21286;-78
2021/03/09 11:17:56;;;;;;;10.45;6.08;;;;;;;5.91;34.62;97214.48;1765851;80;21323;-78
2021/03/09 11:20:25;;;;;;;12.18;7.03;;;;;;;6.05;32.68;97218.92;1772709;80;21131;-78
2021/03/09 11:22:52;;;;;;;11.15;7.67;;;;;;;6.06;31.53;97217.16;1744119;82;21134;-77
2021/03/09 11:25:26;;;;;;;10.05;6.62;;;;;;;6.10;32.68;97200.32;1721709;82;21320;-77
2021/03/09 11:27:54;;;;;;;12.28;6.83;;;;;;;6.17;32.67;97202.11;1712898;84;21101;-76
2021/03/09 11:30:23;;;;;;;11.08;6.00;;;;;;;6.23;34.32;97201.27;1747282;82;21090;-77
2021/03/09 11:32:51;;;;;;;6.25;4.62;;;;;;;6.21;33.29;97197.91;1745668;82;21165;-78
2021/03/09 11:35:19;;;;;;;8.95;5.60;;;;;;;5.97;33.34;97202.81;1713375;84;21261;-78
2021/03/09 11:37:47;;;;;;;8.73;5.42;;;;;;;5.89;33.61;97199.33;1723136;82;21272;-77
2021/03/09 11:40:18;;;;;;;10.40;6.37;;;;;;;5.94;33.96;97192.06;1737700;82;21190;-79
2021/03/09 11:42:46;;;;;;;8.65;4.58;;;;;;;5.98;33.96;97194.51;1725560;82;21261;-77
2021/03/09 11:45:16;;;;;;;8.70;5.92;;;;;;;6.04;33.29;97191.55;1713607;84;21139;-79
2021/03/09 11:47:47;;;;;;;8.63;5.47;;;;;;;5.96;33.07;97191.14;1687790;84;21161;-79
2021/03/09 11:50:16;;;;;;;15.32;6.72;;;;;;;5.96;32.92;97184.59;1746397;82;21267;-78
2021/03/09 11:52:44;;;;;;;8.50;4.83;;;;;;;5.80;32.45;97185.49;1718277;82;21215;-78
2021/03/09 11:55:29;;;;;;;9.65;6.62;;;;;;;5.81;33.12;97182.43;1818012;78;24729;-77
2021/03/09 11:58:00;;;;;;;13.43;7.05;;;;;;;5.66;33.19;97177.16;1815020;78;21593;-79